Time;durP1;ratioP1;P1;durP2;ratioP2;P2;SDS_P1;SDS_P2;PMS_P1;PMS_P2;Temp;Humidity;BMP_temperature;BMP_pressure;BME280_temperature;BME280_humidity;BME280_pressure;Samples;Min_cycle;Max_cycle;Signal;HPM_P1;HPM_P2
2022/05/20 00:00:56;;;;;;;54.08;32.33;;;;;;;11.72;100.00;102079.84;5010067;28;20037;-85
2022/05/20 00:03:21;;;;;;;63.77;35.50;;;;;;;11.70;100.00;102092.69;5009923;28;20022;-86
2022/05/20 00:05:48;;;;;;;53.15;31.65;;;;;;;11.63;100.00;102080.22;5014465;28;20473;-85
2022/05/20 00:08:14;;;;;;;56.70;32.67;;;;;;;11.62;100.00;102081.25;5016854;28;20029;-85
2022/05/20 00:10:40;;;;;;;56.15;31.40;;;;;;;11.61;100.00;102085.00;5029665;28;20013;-84
2022/05/20 00:13:06;;;;;;;53.97;30.60;;;;;;;11.57;100.00;102078.47;5029211;28;20026;-85
2022/05/20 00:15:32;;;;;;;50.67;30.05;;;;;;;11.60;100.00;102080.69;5028276;28;20064;-84
2022/05/20 00:18:00;;;;;;;48.75;29.33;;;;;;;11.53;100.00;102079.97;5034087;28;20026;-84
2022/05/20 00:20:27;;;;;;;46.17;28.33;;;;;;;11.49;100.00;102081.50;5037692;28;20026;-85
2022/05/20 00:22:53;;;;;;;45.85;28.40;;;;;;;11.44;100.00;102082.19;5033090;28;20026;-85
2022/05/20 00:28:04;;;;;;;46.65;28.42;;;;;;;11.38;100.00;102079.63;5033213;28;20115;-85
2022/05/20 00:30:30;;;;;;;45.63;28.30;;;;;;;11.29;100.00;102079.97;5031727;28;20033;-85
2022/05/20 00:32:55;;;;;;;46.70;27.83;;;;;;;11.28;100.00;102072.13;5032347;28;20045;-84
2022/05/20 00:35:22;;;;;;;44.90;28.03;;;;;;;11.23;100.00;102074.72;5031328;28;20122;-84
2022/05/20 00:37:47;;;;;;;41.95;27.08;;;;;;;11.17;100.00;102074.59;5013928;28;20449;-84
2022/05/20 00:40:15;;;;;;;44.27;28.33;;;;;;;11.15;100.00;102070.47;5013121;28;20026;-85
2022/05/20 00:42:41;;;;;;;47.60;28.85;;;;;;;11.10;100.00;102073.88;5013602;28;20429;-85
2022/05/20 00:45:10;;;;;;;47.10;28.67;;;;;;;11.13;100.00;102080.66;5023366;28;20065;-84
2022/05/20 00:47:36;;;;;;;47.17;28.13;;;;;;;11.09;100.00;102076.78;5031086;28;20086;-85
2022/05/20 00:50:08;;;;;;;46.80;28.20;;;;;;;11.09;100.00;102068.75;5033419;28;20025;-85
2022/05/20 00:52:37;;;;;;;44.08;27.30;;;;;;;11.10;100.00;102065.81;5021816;28;20040;-85
2022/05/20 00:55:07;;;;;;;41.15;27.33;;;;;;;11.09;100.00;102068.75;5013115;28;20026;-84
2022/05/20 00:57:47;;;;;;;43.13;26.27;;;;;;;11.10;100.00;102065.00;5032241;28;20034;-84
2022/05/20 01:00:18;;;;;;;45.10;26.42;;;;;;;11.11;100.00;102069.34;5031407;28;20030;-84
2022/05/20 01:02:45;;;;;;;40.10;25.73;;;;;;;11.09;100.00;102079.47;5013274;28;20437;-84
2022/05/20 01:05:19;;;;;;;41.47;26.03;;;;;;;11.05;100.00;102077.25;5029262;28;20382;-84
2022/05/20 01:07:45;;;;;;;40.25;25.67;;;;;;;11.03;100.00;102075.84;5026869;28;20017;-84
2022/05/20 01:10:11;;;;;;;43.95;26.42;;;;;;;10.98;100.00;102068.47;5032533;28;20025;-84
2022/05/20 01:12:36;;;;;;;44.80;26.90;;;;;;;10.98;100.00;102068.47;5032923;28;20036;-84
2022/05/20 01:15:07;;;;;;;42.78;26.27;;;;;;;10.92;100.00;102080.13;5031883;28;20029;-84
2022/05/20 01:17:32;;;;;;;45.47;27.58;;;;;;;10.89;100.00;102069.88;5030748;28;20045;-84
2022/05/20 01:19:58;;;;;;;41.07;26.40;;;;;;;10.85;100.00;102074.03;5031646;28;20037;-85
2022/05/20 01:22:30;;;;;;;42.00;26.73;;;;;;;10.82;100.00;102074.50;5030194;28;20445;-86
2022/05/20 01:24:55;;;;;;;43.05;26.77;;;;;;;10.79;100.00;102075.78;5025213;28;20371;-86
2022/05/20 01:27:21;;;;;;;45.57;28.30;;;;;;;10.81;100.00;102072.88;5030063;28;20033;-88
2022/05/20 01:29:46;;;;;;;46.00;28.85;;;;;;;10.79;100.00;102064.22;5027809;28;20068;-85
2022/05/20 01:32:11;;;;;;;44.83;28.23;;;;;;;10.79;100.00;102069.59;5029951;28;20033;-86
2022/05/20 01:34:36;;;;;;;47.63;27.70;;;;;;;10.75;100.00;102062.03;5031734;28;20083;-85
2022/05/20 01:37:02;;;;;;;45.00;28.03;;;;;;;10.76;100.00;102060.16;5029425;28;20036;-86
2022/05/20 01:39:27;;;;;;;47.13;29.43;;;;;;;10.74;100.00;102063.06;5029794;28;20032;-85
2022/05/20 01:42:04;;;;;;;45.75;27.85;;;;;;;10.71;100.00;102052.81;5030029;28;20029;-84
2022/05/20 01:44:48;;;;;;;43.90;27.97;;;;;;;10.64;100.00;102044.03;5032168;28;20088;-86
2022/05/20 01:47:21;;;;;;;46.53;28.33;;;;;;;10.70;100.00;102055.69;5024030;28;20040;-86
2022/05/20 01:50:05;;;;;;;47.47;28.70;;;;;;;10.67;100.00;102043.56;5019808;28;20105;-86
2022/05/20 01:52:42;;;;;;;47.97;28.55;;;;;;;10.68;100.00;102042.53;5031915;28;20057;-86
2022/05/20 01:55:17;;;;;;;57.20;31.83;;;;;;;10.70;100.00;102034.25;5030302;28;20025;-85
2022/05/20 01:57:53;;;;;;;72.47;32.55;;;;;;;10.71;100.00;102033.19;5031109;28;20114;-85
2022/05/20 02:00:29;;;;;;;62.22;32.75;;;;;;;10.71;100.00;102034.03;5030038;28;20033;-85
2022/05/20 02:03:18;;;;;;;54.20;31.42;;;;;;;10.73;100.00;102040.00;5031706;28;20049;-85
2022/05/20 02:05:54;;;;;;;56.92;31.15;;;;;;;10.71;100.00;102035.88;5028710;28;20025;-85
2022/05/20 02:08:28;;;;;;;58.47;31.73;;;;;;;10.65;100.00;102037.63;5022749;28;20032;-84
2022/05/20 02:11:17;;;;;;;56.57;31.93;;;;;;;10.61;100.00;102028.38;5031012;28;20264;-86
2022/05/20 02:13:53;;;;;;;53.53;32.05;;;;;;;10.57;100.00;102024.56;5030861;28;20017;-84
2022/05/20 02:16:24;;;;;;;56.22;31.48;;;;;;;10.58;100.00;102026.19;5031371;28;20041;-85
2022/05/20 02:19:00;;;;;;;53.33;29.95;;;;;;;10.53;100.00;102026.06;5031449;28;20033;-85
2022/05/20 02:21:30;;;;;;;47.30;28.30;;;;;;;10.48;100.00;102023.22;5029441;28;20037;-85
2022/05/20 02:24:01;;;;;;;45.08;26.75;;;;;;;10.47;100.00;102024.28;5031292;28;20053;-85
2022/05/20 02:26:30;;;;;;;49.65;28.25;;;;;;;10.42;100.00;102025.75;5031065;28;20116;-84
2022/05/20 02:29:01;;;;;;;45.50;27.02;;;;;;;10.42;100.00;102028.44;5029882;28;20056;-84
2022/05/20 02:31:37;;;;;;;39.75;25.60;;;;;;;10.42;100.00;102031.13;5028744;28;20032;-84
2022/05/20 02:34:02;;;;;;;47.03;25.83;;;;;;;10.32;100.00;102003.25;5030489;28;20033;-84
2022/05/20 02:36:33;;;;;;;49.07;27.63;;;;;;;10.45;100.00;102014.59;5030008;28;20914;-84
2022/05/20 02:38:59;;;;;;;44.78;27.67;;;;;;;10.43;100.00;102019.38;5031228;28;20036;-85
2022/05/20 02:41:25;;;;;;;49.05;28.17;;;;;;;10.37;100.00;102019.44;5030133;28;20388;-85
2022/05/20 02:43:50;;;;;;;45.87;27.50;;;;;;;10.37;100.00;102035.50;5030826;28;20017;-84
2022/05/20 02:46:15;;;;;;;48.10;27.73;;;;;;;10.28;100.00;102033.16;5030265;28;20060;-84
2022/05/20 02:48:41;;;;;;;46.50;27.50;;;;;;;10.29;100.00;102025.91;5032235;28;20175;-84
2022/05/20 02:51:06;;;;;;;47.97;27.83;;;;;;;10.32;100.00;102030.03;5034157;28;20509;-84
2022/05/20 02:53:32;;;;;;;48.13;27.83;;;;;;;10.23;100.00;102019.59;5029039;28;20538;-85
2022/05/20 02:55:57;;;;;;;53.83;29.80;;;;;;;10.24;100.00;102026.59;5027641;28;20738;-84
2022/05/20 03:04:11;;;;;;;57.90;30.42;;;;;;;10.18;100.00;102024.81;5027350;28;20044;-83
2022/05/20 03:06:39;;;;;;;50.67;29.00;;;;;;;10.16;100.00;102021.53;5029215;28;20037;-84
2022/05/20 03:09:06;;;;;;;52.90;29.47;;;;;;;10.18;100.00;102021.34;5030087;28;20288;-84
2022/05/20 03:11:33;;;;;;;61.33;31.05;;;;;;;10.18;100.00;102015.97;5026355;28;20083;-82
2022/05/20 03:13:59;;;;;;;54.85;30.27;;;;;;;10.21;100.00;102012.84;5028764;28;20030;-83
2022/05/20 03:16:24;;;;;;;63.92;30.80;;;;;;;10.23;100.00;102008.06;5028331;28;20167;-83
2022/05/20 03:18:50;;;;;;;69.97;31.50;;;;;;;10.21;100.00;102010.19;5029844;28;20512;-83
2022/05/20 03:21:15;;;;;;;117.60;32.50;;;;;;;10.21;100.00;102005.63;5029579;28;20124;-84
2022/05/20 03:23:40;;;;;;;73.10;31.30;;;;;;;10.24;100.00;102010.53;5030036;28;20033;-84
2022/05/20 03:26:05;;;;;;;72.20;33.00;;;;;;;10.28;100.00;102017.09;5029500;28;20041;-84
2022/05/20 03:28:33;;;;;;;64.30;34.60;;;;;;;10.36;100.00;102023.97;5029083;28;20374;-84
2022/05/20 03:31:07;;;;;;;60.80;32.55;;;;;;;10.42;100.00;102016.94;5027920;28;20045;-83
2022/05/20 03:33:33;;;;;;;55.63;31.98;;;;;;;10.37;100.00;102008.72;5029515;28;20337;-84
2022/05/20 03:36:00;;;;;;;54.72;30.42;;;;;;;10.33;100.00;101997.63;5029674;28;20499;-84
2022/05/20 03:38:25;;;;;;;53.05;30.17;;;;;;;10.36;100.00;102007.91;5030076;28;20025;-84
2022/05/20 03:40:51;;;;;;;50.43;29.27;;;;;;;10.41;100.00;102013.41;5029421;28;20035;-84
2022/05/20 03:43:16;;;;;;;55.70;30.90;;;;;;;10.41;100.00;102004.56;5027603;28;20120;-83
2022/05/20 03:45:42;;;;;;;51.97;30.27;;;;;;;10.43;100.00;102018.56;5029110;28;20113;-83
2022/05/20 03:48:08;;;;;;;59.67;29.73;;;;;;;10.43;100.00;102005.97;5029663;28;20370;-83
2022/05/20 03:50:33;;;;;;;50.47;28.08;;;;;;;10.45;100.00;102001.19;5026696;28;20029;-83
2022/05/20 03:52:59;;;;;;;72.23;28.63;;;;;;;10.52;100.00;101994.94;5029849;28;20065;-86
2022/05/20 03:55:25;;;;;;;54.97;28.90;;;;;;;10.67;100.00;101999.88;5028146;28;20120;-86
2022/05/20 03:57:51;;;;;;;65.32;28.90;;;;;;;10.76;100.00;101990.44;5026719;28;20025;-86
2022/05/20 04:00:20;;;;;;;47.22;27.88;;;;;;;10.85;100.00;101982.88;5027110;28;20124;-87
2022/05/20 04:02:45;;;;;;;61.58;28.60;;;;;;;10.89;100.00;101986.75;5021469;28;20381;-93
2022/05/20 04:05:11;;;;;;;60.83;27.03;;;;;;;10.88;100.00;101985.09;5029531;28;20057;-93
2022/05/20 04:07:38;;;;;;;51.10;26.50;;;;;;;10.84;100.00;101982.06;5027684;28;20028;-93
2022/05/20 04:10:05;;;;;;;53.65;26.40;;;;;;;10.82;100.00;101977.97;5026022;28;20080;-93
2022/05/20 04:12:33;;;;;;;75.95;27.00;;;;;;;10.83;100.00;101979.59;5028180;28;20057;-92
2022/05/20 04:15:01;;;;;;;82.32;27.65;;;;;;;10.88;100.00;101982.41;5029691;28;20033;-86
2022/05/20 04:17:27;;;;;;;118.20;28.02;;;;;;;10.87;100.00;101978.91;5028064;28;20104;-87
2022/05/20 04:19:52;;;;;;;91.05;28.35;;;;;;;10.93;100.00;101979.88;5030128;28;20079;-86
2022/05/20 04:22:22;;;;;;;52.67;28.50;;;;;;;10.96;100.00;101978.59;5026389;28;20029;-87
2022/05/20 04:24:48;;;;;;;50.03;29.38;;;;;;;11.01;100.00;101973.34;5027286;28;20501;-87
2022/05/20 04:27:15;;;;;;;95.43;27.70;;;;;;;10.99;100.00;101965.50;5028852;28;20061;-88
2022/05/20 04:29:40;;;;;;;78.57;26.60;;;;;;;11.13;100.00;101966.09;5028451;28;20371;-87
2022/05/20 04:32:06;;;;;;;65.07;28.53;;;;;;;11.23;100.00;101962.84;5018046;28;20025;-86
2022/05/20 04:34:31;;;;;;;37.33;26.92;;;;;;;11.35;100.00;101960.94;5028821;28;20033;-86
2022/05/20 04:36:56;;;;;;;87.77;27.00;;;;;;;11.42;100.00;101974.25;5029290;28;20084;-86
2022/05/20 04:39:21;;;;;;;157.07;28.57;;;;;;;11.43;100.00;101973.19;5028865;28;20401;-86
2022/05/20 04:47:19;;;;;;;54.53;26.77;;;;;;;11.59;100.00;101968.19;5017848;28;20519;-86
2022/05/20 04:49:44;;;;;;;40.45;26.08;;;;;;;11.65;100.00;101969.91;5026866;28;20478;-86
2022/05/20 04:52:10;;;;;;;44.83;24.90;;;;;;;11.69;100.00;101980.97;5028080;28;20109;-86
2022/05/20 04:54:51;;;;;;;72.47;24.85;;;;;;;11.72;100.00;101983.19;5028968;28;20029;-86
2022/05/20 04:57:45;;;;;;;35.67;25.60;;;;;;;11.83;100.00;101987.72;5024525;28;20040;-85
2022/05/20 05:00:18;;;;;;;54.97;25.50;;;;;;;11.89;100.00;102002.88;5027622;28;20069;-85
2022/05/20 05:02:43;;;;;;;44.30;27.48;;;;;;;12.02;100.00;101991.06;5028450;28;20497;-87
2022/05/20 05:05:11;;;;;;;38.55;25.30;;;;;;;12.34;100.00;102009.41;5028199;28;20065;-86
2022/05/20 05:07:43;;;;;;;45.40;25.65;;;;;;;12.53;100.00;102004.66;5026259;28;20030;-86
2022/05/20 05:10:11;;;;;;;40.27;26.37;;;;;;;12.77;100.00;102011.75;5030198;28;20052;-86
2022/05/20 05:12:36;;;;;;;36.43;26.20;;;;;;;13.03;100.00;102015.69;5032634;28;20284;-86
2022/05/20 05:15:03;;;;;;;45.75;26.73;;;;;;;13.27;100.00;102002.03;5030949;28;20388;-86
2022/05/20 05:20:21;;;;;;;53.63;25.85;;;;;;;13.42;100.00;102001.50;5012893;28;20069;-86
2022/05/20 05:22:49;;;;;;;47.25;26.65;;;;;;;13.51;99.60;102001.88;5018038;28;20469;-86
2022/05/20 05:25:15;;;;;;;58.78;24.48;;;;;;;13.50;98.65;102002.94;5030675;28;20029;-86
2022/05/20 05:27:40;;;;;;;51.25;26.27;;;;;;;13.45;99.55;101993.72;5030706;28;20075;-86
2022/05/20 05:30:08;;;;;;;37.23;25.73;;;;;;;13.53;98.77;101997.03;5031535;28;20367;-89
2022/05/20 05:32:35;;;;;;;31.98;24.42;;;;;;;13.62;100.00;101995.53;5018128;28;20449;-89
2022/05/20 05:35:01;;;;;;;35.00;25.23;;;;;;;13.73;99.21;102002.69;5024363;28;20029;-90
2022/05/20 05:37:26;;;;;;;47.40;26.25;;;;;;;13.77;98.56;101992.25;5032360;28;20032;-87
2022/05/20 05:39:52;;;;;;;38.03;27.40;;;;;;;13.80;98.73;101990.91;5032512;28;20026;-88
2022/05/20 05:42:17;;;;;;;39.08;26.80;;;;;;;13.83;98.61;101985.03;5030520;28;20029;-87
2022/05/20 05:44:42;;;;;;;38.93;26.47;;;;;;;13.77;98.15;101976.88;5031135;28;20025;-87
2022/05/20 05:47:07;;;;;;;40.67;27.67;;;;;;;13.61;99.37;101965.09;5030774;28;20032;-87
2022/05/20 05:49:33;;;;;;;40.83;28.03;;;;;;;13.82;100.00;101975.31;5030117;28;20056;-90
2022/05/20 05:51:58;;;;;;;46.13;30.87;;;;;;;14.48;99.58;101963.56;5029311;28;20501;-89
2022/05/20 05:54:23;;;;;;;46.87;30.50;;;;;;;15.21;97.87;101968.44;5026078;28;20025;-90
2022/05/20 05:56:49;;;;;;;38.17;27.93;;;;;;;15.60;93.27;101968.09;5027794;28;20056;-89
2022/05/20 05:59:15;;;;;;;38.08;26.55;;;;;;;15.72;90.59;101961.66;5031802;28;20040;-90
2022/05/20 06:01:40;;;;;;;34.83;24.88;;;;;;;15.58;91.86;101951.34;5030912;28;20083;-89
2022/05/20 06:04:06;;;;;;;34.57;24.40;;;;;;;15.53;91.43;101948.63;5031804;28;20022;-89
2022/05/20 06:06:31;;;;;;;35.40;25.47;;;;;;;15.72;93.77;101964.34;5031395;28;20029;-89
2022/05/20 06:08:56;;;;;;;32.60;23.50;;;;;;;15.87;90.81;101960.94;5027660;28;20022;-90
2022/05/20 06:11:22;;;;;;;32.20;24.80;;;;;;;15.80;90.24;101966.56;5032362;28;20517;-89
2022/05/20 06:13:47;;;;;;;36.57;24.33;;;;;;;15.70;91.93;101961.94;5030564;28;20044;-89
2022/05/20 06:16:21;;;;;;;33.03;22.73;;;;;;;15.75;90.99;101953.84;5020663;28;20029;-90
2022/05/20 06:18:46;;;;;;;33.65;24.55;;;;;;;15.88;92.04;101957.97;5030063;28;20025;-89
2022/05/20 06:21:13;;;;;;;33.17;22.77;;;;;;;16.01;90.43;101959.34;5030665;28;20037;-88
2022/05/20 06:23:38;;;;;;;33.67;22.88;;;;;;;16.13;90.79;101958.31;5030275;28;20024;-87
2022/05/20 06:26:04;;;;;;;30.20;21.43;;;;;;;16.07;89.48;101959.34;5048130;28;20045;-88
2022/05/20 06:28:30;;;;;;;29.52;18.13;;;;;;;16.05;87.17;101960.44;5051495;28;20794;-89
2022/05/20 06:30:56;;;;;;;30.30;20.20;;;;;;;15.89;88.24;101961.47;5046129;28;20543;-88
2022/05/20 06:33:22;;;;;;;28.97;20.77;;;;;;;15.89;89.09;101961.47;5029981;28;20338;-89
2022/05/20 06:41:15;;;;;;;27.30;17.48;;;;;;;16.84;85.22;101951.28;5027725;28;20036;-89
2022/05/20 06:43:40;;;;;;;26.40;17.37;;;;;;;17.13;82.44;101941.78;5014137;28;20698;-85
2022/05/20 06:46:07;;;;;;;26.20;16.67;;;;;;;17.50;80.13;101930.53;5023211;28;20025;-87
2022/05/20 06:48:42;;;;;;;21.53;14.80;;;;;;;17.91;76.69;101936.81;5029027;28;20448;-87
2022/05/20 06:51:09;;;;;;;26.10;13.82;;;;;;;18.01;72.63;101940.31;5029351;28;20029;-89
2022/05/20 06:53:35;;;;;;;23.42;13.52;;;;;;;17.91;73.72;101929.47;5029137;28;20025;-88
2022/05/20 06:56:00;;;;;;;22.75;13.68;;;;;;;17.70;74.88;101935.06;5029626;28;20045;-87
2022/05/20 06:58:25;;;;;;;17.90;12.40;;;;;;;17.38;73.94;101930.84;5029916;28;20037;-87
2022/05/20 07:00:50;;;;;;;22.40;13.23;;;;;;;17.25;76.61;101928.72;5031264;28;20029;-87
2022/05/20 07:03:19;;;;;;;15.03;10.50;;;;;;;17.29;75.11;101927.09;5030388;28;20039;-87
2022/05/20 07:05:46;;;;;;;14.00;10.70;;;;;;;17.46;74.85;101915.09;5026682;28;20037;-87
2022/05/20 07:08:11;;;;;;;14.55;9.57;;;;;;;17.76;72.52;101918.72;5017348;28;20392;-87
2022/05/20 07:10:37;;;;;;;14.13;9.50;;;;;;;18.04;70.98;101919.16;5026064;28;20040;-87
2022/05/20 07:13:02;;;;;;;14.27;8.53;;;;;;;18.29;69.93;101918.16;5031189;28;20017;-87
2022/05/20 07:15:27;;;;;;;15.07;8.73;;;;;;;18.42;68.96;101908.53;5029933;28;20499;-87
2022/05/20 07:17:53;;;;;;;14.95;8.25;;;;;;;18.64;68.44;101904.53;5030110;28;20049;-87
2022/05/20 07:20:18;;;;;;;13.03;7.77;;;;;;;18.83;65.88;101907.34;5030105;28;20041;-87
2022/05/20 07:22:46;;;;;;;12.77;8.13;;;;;;;18.85;66.95;101897.78;5029826;28;20116;-87
2022/05/20 07:25:12;;;;;;;15.70;9.05;;;;;;;18.90;66.82;101886.06;5030292;28;20380;-87
2022/05/20 07:27:37;;;;;;;12.90;7.97;;;;;;;19.01;67.11;101890.31;5030092;28;20108;-87
2022/05/20 07:30:04;;;;;;;13.23;8.43;;;;;;;18.94;66.28;101899.91;5030604;28;20017;-87
2022/05/20 07:32:29;;;;;;;12.88;7.90;;;;;;;18.80;64.13;101895.16;5030763;28;20112;-86
2022/05/20 07:34:55;;;;;;;14.50;8.63;;;;;;;18.84;66.87;101879.88;5032439;28;20150;-87
2022/05/20 07:37:20;;;;;;;10.20;7.50;;;;;;;18.96;65.39;101893.09;5021145;28;20608;-87
2022/05/20 07:39:46;;;;;;;12.07;8.20;;;;;;;19.10;63.52;101887.78;5032170;28;20418;-87
2022/05/20 07:42:12;;;;;;;13.10;7.80;;;;;;;19.45;63.89;101891.13;5031570;28;20064;-87
2022/05/20 07:44:38;;;;;;;10.50;7.45;;;;;;;19.48;62.69;101889.75;5031243;28;20101;-87
2022/05/20 07:47:04;;;;;;;10.07;7.43;;;;;;;19.54;61.36;101887.78;5030249;28;20052;-88
2022/05/20 07:49:29;;;;;;;11.52;7.45;;;;;;;19.59;62.19;101882.25;5029148;28;20083;-87
2022/05/20 07:51:57;;;;;;;11.70;7.33;;;;;;;19.64;59.69;101877.53;5029108;28;20029;-87
2022/05/20 07:54:25;;;;;;;9.68;7.05;;;;;;;19.71;60.88;101866.31;5029889;28;20025;-87
2022/05/20 07:56:57;;;;;;;9.15;6.85;;;;;;;20.02;59.82;101868.59;5029179;28;20103;-87
2022/05/20 07:59:29;;;;;;;10.75;6.82;;;;;;;20.09;59.10;101854.59;5030955;28;20036;-88
2022/05/20 08:01:55;;;;;;;11.32;6.80;;;;;;;20.06;58.84;101858.75;5038103;28;20083;-87
2022/05/20 08:07:09;;;;;;;11.88;6.95;;;;;;;20.38;57.82;101850.84;5041776;28;20045;-87
2022/05/20 08:09:35;;;;;;;11.55;7.13;;;;;;;20.42;57.48;101844.50;5056017;28;20025;-87
2022/05/20 08:12:01;;;;;;;9.13;6.67;;;;;;;20.44;56.46;101846.91;5042305;28;20034;-87
2022/05/20 08:14:28;;;;;;;10.55;6.57;;;;;;;20.42;56.29;101838.25;5034803;28;20079;-88
2022/05/20 08:16:56;;;;;;;16.17;6.97;;;;;;;20.55;57.00;101847.53;5036073;28;20116;-87
2022/05/20 08:19:21;;;;;;;11.15;6.60;;;;;;;20.73;56.49;101841.19;5030081;28;20041;-86
2022/05/20 08:21:47;;;;;;;12.60;7.63;;;;;;;20.99;55.49;101839.91;5029861;28;20075;-87
2022/05/20 08:24:12;;;;;;;9.87;6.47;;;;;;;21.44;57.11;101829.13;5030843;28;20447;-87
2022/05/20 08:26:37;;;;;;;9.10;6.67;;;;;;;21.88;54.86;101831.38;5027021;28;20041;-87
2022/05/20 08:29:03;;;;;;;14.03;8.33;;;;;;;21.97;53.16;101832.25;5029978;28;20025;-87
2022/05/20 08:31:28;;;;;;;13.50;7.80;;;;;;;21.96;53.69;101830.66;5028830;28;20037;-87
2022/05/20 08:33:54;;;;;;;13.47;8.13;;;;;;;22.12;53.32;101819.34;5029737;28;20030;-87
2022/05/20 08:36:20;;;;;;;12.40;8.45;;;;;;;22.20;53.57;101816.66;5028420;28;20220;-87
2022/05/20 08:38:48;;;;;;;11.70;7.90;;;;;;;22.16;53.40;101821.13;5009844;28;20026;-87
2022/05/20 08:41:24;;;;;;;14.77;9.13;;;;;;;22.06;54.50;101822.19;5009762;28;20022;-87
2022/05/20 08:43:50;;;;;;;18.10;9.23;;;;;;;21.95;51.86;101812.66;5028315;28;20029;-88
2022/05/20 08:46:21;;;;;;;13.00;8.93;;;;;;;21.67;54.48;101803.81;5031184;28;20041;-87
2022/05/20 08:48:53;;;;;;;16.27;9.57;;;;;;;21.44;54.67;101781.97;5034006;28;20044;-87
2022/05/20 08:51:20;;;;;;;13.30;9.27;;;;;;;21.40;56.34;101772.78;5032948;28;20042;-88
2022/05/20 08:53:47;;;;;;;17.65;9.57;;;;;;;21.37;56.60;101762.50;5029929;28;20026;-88
2022/05/20 08:56:21;;;;;;;19.00;10.55;;;;;;;21.31;56.38;101770.81;5032144;28;20063;-87
2022/05/20 08:58:57;;;;;;;15.27;10.02;;;;;;;21.31;56.82;101756.34;5033195;28;20744;-87
2022/05/20 09:01:47;;;;;;;15.35;10.20;;;;;;;21.62;58.34;101759.19;5032974;28;20025;-88
2022/05/20 09:04:16;;;;;;;18.52;10.25;;;;;;;21.75;55.76;101765.69;5032866;28;20410;-87
2022/05/20 09:07:07;;;;;;;17.67;10.45;;;;;;;21.96;56.95;101778.00;5031735;28;20035;-88
2022/05/20 09:09:55;;;;;;;13.83;9.80;;;;;;;22.07;57.19;101769.22;5022161;28;20030;-88
2022/05/20 09:12:31;;;;;;;12.47;9.90;;;;;;;22.22;56.99;101757.09;5030697;28;20288;-87
2022/05/20 09:18:03;;;;;;;13.98;9.60;;;;;;;22.51;54.71;101755.00;5032570;28;20099;-88
2022/05/20 09:20:29;;;;;;;12.93;8.80;;;;;;;22.50;52.33;101742.44;5029772;28;20688;-88
2022/05/20 09:23:04;;;;;;;16.95;9.40;;;;;;;22.57;53.75;101739.25;5035340;28;20156;-88
2022/05/20 09:25:34;;;;;;;13.15;8.52;;;;;;;22.96;52.35;101730.13;5030973;28;20044;-88
2022/05/20 09:28:30;;;;;;;14.23;8.00;;;;;;;23.07;52.28;101721.63;5030763;28;20042;-87
2022/05/20 09:31:06;;;;;;;13.97;7.43;;;;;;;22.78;50.81;101715.69;5030261;28;20284;-87
2022/05/20 09:33:34;;;;;;;17.48;8.40;;;;;;;22.81;51.36;101708.75;5027716;28;20047;-88
2022/05/20 09:36:01;;;;;;;11.30;7.85;;;;;;;22.83;50.99;101695.59;5030587;28;20037;-87
2022/05/20 09:38:31;;;;;;;14.68;8.07;;;;;;;22.94;51.95;101696.06;5029204;28;20041;-87
2022/05/20 09:40:57;;;;;;;13.52;8.38;;;;;;;22.94;51.48;101694.13;5019092;28;20785;-86
2022/05/20 09:43:28;;;;;;;11.40;8.07;;;;;;;23.22;51.99;101701.22;5030341;28;20099;-83
2022/05/20 09:45:56;;;;;;;11.18;7.90;;;;;;;23.38;52.12;101688.66;5031572;28;20052;-83
2022/05/20 09:49:08;;;;;;;12.60;8.60;;;;;;;23.68;50.76;101675.06;5028697;28;20021;-83
2022/05/20 09:51:41;;;;;;;14.18;8.85;;;;;;;24.06;49.63;101669.97;5016576;28;20091;-83
2022/05/20 09:54:30;;;;;;;18.30;9.57;;;;;;;24.56;49.88;101652.72;5031348;28;20113;-83
2022/05/20 09:56:57;;;;;;;15.73;9.00;;;;;;;24.72;48.41;101649.41;5025928;28;20568;-83
2022/05/20 09:59:42;;;;;;;15.13;9.35;;;;;;;24.74;48.82;101633.44;5031408;28;20030;-83
2022/05/20 10:02:25;;;;;;;16.63;8.80;;;;;;;24.75;47.96;101633.09;5032475;28;20054;-83
2022/05/20 10:05:11;;;;;;;14.77;9.73;;;;;;;24.86;48.41;101616.25;5030046;28;20303;-83
2022/05/20 10:07:53;;;;;;;17.05;8.65;;;;;;;25.00;47.25;101605.00;5030575;28;20029;-83
2022/05/20 10:10:43;;;;;;;16.90;10.00;;;;;;;25.07;49.15;101605.22;5025513;28;20030;-83
2022/05/20 10:13:34;;;;;;;17.88;9.77;;;;;;;25.16;47.30;101591.44;5032026;28;20052;-83
2022/05/20 10:16:13;;;;;;;16.98;10.25;;;;;;;25.22;46.98;101577.16;5030596;28;20557;-83
2022/05/20 10:18:41;;;;;;;19.75;10.60;;;;;;;25.15;46.58;101585.16;5031433;28;20024;-83
2022/05/20 10:21:25;;;;;;;16.45;9.68;;;;;;;25.04;47.27;101564.78;5027806;28;20404;-83
2022/05/20 10:24:12;;;;;;;13.07;9.57;;;;;;;25.07;46.85;101561.38;5031664;28;20021;-83
2022/05/20 10:26:53;;;;;;;20.55;9.65;;;;;;;25.28;47.37;101555.00;5029770;28;20042;-83
2022/05/20 10:32:34;;;;;;;16.77;10.10;;;;;;;24.92;48.07;101549.91;5031227;28;20294;-83
2022/05/20 10:35:03;;;;;;;14.73;9.32;;;;;;;25.01;47.42;101547.09;5026387;28;20195;-83
2022/05/20 10:37:42;;;;;;;15.45;9.95;;;;;;;25.18;48.27;101537.88;5028703;28;20040;-83
2022/05/20 10:40:34;;;;;;;14.98;10.77;;;;;;;24.99;47.78;101541.13;5030626;28;20432;-83
2022/05/20 10:43:27;;;;;;;17.58;10.27;;;;;;;24.69;48.87;101521.28;5030826;28;20092;-83
2022/05/20 10:49:14;;;;;;;17.17;10.57;;;;;;;24.62;49.75;101487.03;5030479;28;20129;-84
2022/05/20 10:52:01;;;;;;;16.58;10.50;;;;;;;24.59;48.42;101471.25;5023846;28;20081;-83
2022/05/20 10:54:43;;;;;;;20.05;11.27;;;;;;;24.43;49.13;101456.59;5030894;28;20018;-82
2022/05/20 10:57:56;;;;;;;20.80;11.60;;;;;;;24.44;50.09;101445.31;5009475;28;20045;-84
2022/05/20 11:00:30;;;;;;;19.37;11.17;;;;;;;24.72;50.12;101424.72;5010480;28;20779;-84
2022/05/20 11:03:40;;;;;;;17.10;11.43;;;;;;;25.06;49.07;101415.28;5011005;28;20030;-84
2022/05/20 11:06:13;;;;;;;19.75;12.20;;;;;;;24.86;49.47;101403.28;5026649;28;20044;-84
2022/05/20 11:08:57;;;;;;;21.45;13.80;;;;;;;24.57;49.94;101396.84;5029062;28;20033;-84
2022/05/20 11:11:39;;;;;;;19.83;14.05;;;;;;;24.38;51.06;101380.91;5016041;28;20515;-84
2022/05/20 11:14:10;;;;;;;23.63;14.57;;;;;;;24.33;51.14;101373.72;5030644;28;20043;-84
2022/05/20 11:17:00;;;;;;;22.45;14.55;;;;;;;24.41;51.54;101366.56;5029308;28;20065;-84
2022/05/20 11:19:32;;;;;;;21.80;14.57;;;;;;;24.35;51.88;101355.03;5029380;28;20041;-84
2022/05/20 11:22:15;;;;;;;22.00;15.65;;;;;;;24.34;53.33;101361.63;5029462;28;20044;-84
2022/05/20 11:24:49;;;;;;;21.83;15.50;;;;;;;24.59;52.03;101344.44;5012507;28;20034;-84
2022/05/20 11:27:40;;;;;;;25.83;15.87;;;;;;;24.74;51.74;101345.75;5029710;28;20295;-84
2022/05/20 11:30:13;;;;;;;24.55;15.70;;;;;;;24.49;51.98;101342.94;5026254;28;20045;-83
2022/05/20 11:33:05;;;;;;;25.67;17.80;;;;;;;24.25;52.80;101339.03;5029317;28;20460;-84
2022/05/20 11:36:02;;;;;;;24.42;16.98;;;;;;;24.00;54.05;101338.97;5028428;28;20139;-84
2022/05/20 11:38:46;;;;;;;29.95;18.58;;;;;;;23.56;56.25;101336.63;5023658;28;20080;-83
2022/05/20 11:41:43;;;;;;;24.50;18.33;;;;;;;23.49;56.16;101333.59;5011686;28;20485;-83
2022/05/20 11:44:29;;;;;;;28.33;19.35;;;;;;;23.08;57.45;101325.03;5007435;28;20505;-84
2022/05/20 11:47:12;;;;;;;28.05;19.27;;;;;;;22.87;58.11;101322.25;5016982;28;20051;-84
2022/05/20 11:50:11;;;;;;;32.03;20.85;;;;;;;22.61;59.62;101328.66;5029334;28;20056;-84
2022/05/20 11:52:59;;;;;;;35.60;19.07;;;;;;;22.37;60.43;101312.81;5026154;28;20033;-84
2022/05/20 11:55:39;;;;;;;31.87;20.07;;;;;;;22.11;61.53;101294.59;5028168;28;20387;-84
2022/05/20 11:58:07;;;;;;;30.77;20.30;;;;;;;21.93;62.33;101283.72;5028482;28;20069;-84